createdAt,value
2019-02-09T00:00:34.419Z,4.40
2019-02-09T00:03:02.855Z,5.43
2019-02-09T00:05:31.175Z,7.67
2019-02-09T00:07:59.506Z,3.53
2019-02-09T00:10:27.782Z,1.50
2019-02-09T00:12:56.091Z,5.03
2019-02-09T00:15:24.370Z,3.43
2019-02-09T00:17:53.015Z,3.47
2019-02-09T00:20:21.342Z,2.80
2019-02-09T00:22:49.667Z,5.40
2019-02-09T00:25:23.125Z,3.50
2019-02-09T00:27:51.571Z,2.07
2019-02-09T00:30:22.255Z,3.77
2019-02-09T00:32:50.537Z,3.63
2019-02-09T00:35:20.203Z,3.60
2019-02-09T00:37:48.500Z,4.73
2019-02-09T00:40:25.164Z,3.77
2019-02-09T00:42:53.418Z,1.73
2019-02-09T00:45:22.939Z,5.30
2019-02-09T00:47:51.230Z,1.87
2019-02-09T00:50:20.056Z,2.90
2019-02-09T00:52:48.445Z,3.20
2019-02-09T00:55:24.555Z,6.50
2019-02-09T00:57:52.844Z,4.17
2019-02-09T01:00:27.355Z,6.70
2019-02-09T01:02:55.671Z,5.03
2019-02-09T01:05:30.205Z,2.97
2019-02-09T01:07:58.513Z,7.33
2019-02-09T01:10:28.671Z,5.23
2019-02-09T01:12:57.023Z,3.93
2019-02-09T01:15:25.305Z,2.40
2019-02-09T01:17:53.650Z,7.80
2019-02-09T01:20:27.120Z,3.70
2019-02-09T01:22:59.167Z,5.80
2019-02-09T01:25:27.469Z,8.63
2019-02-09T01:27:55.743Z,8.43
2019-02-09T01:30:28.828Z,5.83
2019-02-09T01:32:57.157Z,6.93
2019-02-09T01:35:25.444Z,3.47
2019-02-09T01:37:53.712Z,3.80
2019-02-09T01:40:26.888Z,10.47
2019-02-09T01:42:55.480Z,4.30
2019-02-09T01:45:27.325Z,5.83
2019-02-09T01:47:55.648Z,5.20
2019-02-09T01:50:24.975Z,5.87
2019-02-09T01:52:53.361Z,5.60
2019-02-09T01:55:21.756Z,6.00
2019-02-09T01:57:50.157Z,5.10
2019-02-09T02:00:24.517Z,2.80
2019-02-09T02:02:52.847Z,4.73
2019-02-09T02:05:22.536Z,5.20
2019-02-09T02:07:50.822Z,4.20
2019-02-09T02:10:27.361Z,4.63
2019-02-09T02:12:55.623Z,10.63
2019-02-09T02:15:23.963Z,3.60
2019-02-09T02:17:52.275Z,3.23
2019-02-09T02:20:22.745Z,4.80
2019-02-09T02:22:51.015Z,5.10
2019-02-09T02:25:20.915Z,6.00
2019-02-09T02:27:49.209Z,4.40
2019-02-09T02:30:22.900Z,3.83
2019-02-09T02:32:51.788Z,1.70
2019-02-09T02:35:21.028Z,4.83
2019-02-09T02:37:49.298Z,5.73
2019-02-09T02:40:19.836Z,4.33
2019-02-09T02:42:48.517Z,5.90
2019-02-09T02:45:18.776Z,6.50
2019-02-09T02:47:47.026Z,2.83
2019-02-09T02:50:20.710Z,8.07
2019-02-09T02:52:49.022Z,6.30
2019-02-09T02:55:19.470Z,2.07
2019-02-09T02:57:47.848Z,7.80
2019-02-09T03:00:31.001Z,3.10
2019-02-09T03:02:51.653Z,3.53
2019-02-09T03:05:21.749Z,10.50
2019-02-09T03:07:50.092Z,2.23
2019-02-09T03:10:18.407Z,3.20
2019-02-09T03:12:46.757Z,4.00
2019-02-09T03:15:20.995Z,3.00
2019-02-09T03:17:49.346Z,4.17
2019-02-09T03:20:19.260Z,3.93
2019-02-09T03:22:47.625Z,4.17
2019-02-09T03:25:21.429Z,5.53
2019-02-09T03:27:49.685Z,6.03
2019-02-09T03:30:20.610Z,3.30
2019-02-09T03:32:49.009Z,9.17
2019-02-09T03:35:18.010Z,5.37
2019-02-09T03:37:46.414Z,4.77
2019-02-09T03:40:22.846Z,2.93
2019-02-09T03:42:51.124Z,3.73
2019-02-09T03:45:23.649Z,2.73
2019-02-09T03:47:52.086Z,5.70
2019-02-09T03:50:25.780Z,3.33
2019-02-09T03:52:54.077Z,3.90
2019-02-09T03:55:22.354Z,6.73
2019-02-09T03:57:50.683Z,2.70
2019-02-09T04:00:25.042Z,6.43
2019-02-09T04:02:53.316Z,2.30
2019-02-09T04:05:21.673Z,7.20
2019-02-09T04:07:49.930Z,2.80
2019-02-09T04:10:23.680Z,5.70
2019-02-09T04:12:51.955Z,2.23
2019-02-09T04:15:21.861Z,7.27
2019-02-09T04:17:50.142Z,7.13
2019-02-09T04:20:20.159Z,6.73
2019-02-09T04:22:48.562Z,5.77
2019-02-09T04:25:20.818Z,6.63
2019-02-09T04:27:49.913Z,5.27
2019-02-09T04:30:20.335Z,5.77
2019-02-09T04:32:48.571Z,15.87
2019-02-09T04:35:16.874Z,8.63
2019-02-09T04:37:45.163Z,4.77
2019-02-09T04:40:16.721Z,7.30
2019-02-09T04:42:44.983Z,11.50
2019-02-09T04:45:15.616Z,7.03
2019-02-09T04:47:43.879Z,10.40
2019-02-09T04:50:13.072Z,3.57
2019-02-09T04:52:41.363Z,9.47
2019-02-09T04:55:12.863Z,8.63
2019-02-09T04:57:41.168Z,8.67
2019-02-09T05:00:12.813Z,7.20
2019-02-09T05:02:41.910Z,3.13
2019-02-09T05:05:10.667Z,5.07
2019-02-09T05:07:38.934Z,10.73
2019-02-09T05:10:10.667Z,2.27
2019-02-09T05:12:38.997Z,8.27
2019-02-09T05:15:12.370Z,6.10
2019-02-09T05:17:40.642Z,8.33
2019-02-09T05:20:11.722Z,16.27
2019-02-09T05:22:40.172Z,5.57
2019-02-09T05:25:10.552Z,11.77
2019-02-09T05:27:38.812Z,9.97
2019-02-09T05:30:10.651Z,8.00
2019-02-09T05:32:38.959Z,12.80
2019-02-09T05:35:09.614Z,4.43
2019-02-09T05:37:37.909Z,10.23
2019-02-09T05:40:14.586Z,4.97
2019-02-09T05:42:42.859Z,3.80
2019-02-09T05:45:16.659Z,8.10
2019-02-09T05:47:44.975Z,10.20
2019-02-09T05:50:17.916Z,4.10
2019-02-09T05:52:46.800Z,10.23
2019-02-09T05:55:15.521Z,7.43
2019-02-09T05:57:43.800Z,3.70
2019-02-09T06:00:15.482Z,9.77
2019-02-09T06:02:44.218Z,4.20
2019-02-09T06:05:12.707Z,4.43
2019-02-09T06:07:40.948Z,8.10
2019-02-09T06:10:17.542Z,7.53
2019-02-09T06:12:45.956Z,10.97
2019-02-09T06:15:20.460Z,5.70
2019-02-09T06:17:48.760Z,10.43
2019-02-09T06:20:22.751Z,4.43
2019-02-09T06:22:51.038Z,9.10
2019-02-09T06:25:20.949Z,14.63
2019-02-09T06:27:49.230Z,13.63
2019-02-09T06:30:22.402Z,11.37
2019-02-09T06:32:50.670Z,9.40
2019-02-09T06:35:19.108Z,18.03
2019-02-09T06:37:47.411Z,10.77
2019-02-09T06:40:17.702Z,9.53
2019-02-09T06:42:46.012Z,20.73
2019-02-09T06:45:17.182Z,11.00
2019-02-09T06:47:45.454Z,14.03
2019-02-09T06:50:16.718Z,4.60
2019-02-09T06:52:45.012Z,9.60
2019-02-09T06:55:15.609Z,9.67
2019-02-09T06:57:43.902Z,8.43
2019-02-09T07:00:15.099Z,17.73
2019-02-09T07:02:43.418Z,12.87
2019-02-09T07:05:16.505Z,11.93
2019-02-09T07:07:44.913Z,18.57
2019-02-09T07:10:21.526Z,11.80
2019-02-09T07:12:49.854Z,23.73
2019-02-09T07:15:23.374Z,12.87
2019-02-09T07:17:51.695Z,9.50
2019-02-09T07:20:19.999Z,9.53
2019-02-09T07:22:48.249Z,11.47
2019-02-09T07:25:17.015Z,14.00
2019-02-09T07:27:45.622Z,13.17
2019-02-09T07:30:21.974Z,18.67
2019-02-09T07:32:50.277Z,11.23
2019-02-09T07:35:18.593Z,18.57
2019-02-09T07:37:46.865Z,18.53
2019-02-09T07:40:18.235Z,15.80
2019-02-09T07:42:46.475Z,8.47
2019-02-09T07:45:17.617Z,8.97
2019-02-09T07:47:45.925Z,10.87
2019-02-09T07:50:16.989Z,19.03
2019-02-09T07:52:45.315Z,7.80
2019-02-09T07:55:16.098Z,17.37
2019-02-09T07:57:44.440Z,12.07
2019-02-09T08:00:18.372Z,12.87
2019-02-09T08:02:46.681Z,9.67
2019-02-09T08:05:14.994Z,11.53
2019-02-09T08:07:43.353Z,9.40
2019-02-09T08:10:14.896Z,14.00
2019-02-09T08:12:43.231Z,19.10
2019-02-09T08:15:22.666Z,13.80
2019-02-09T08:17:50.941Z,21.13
2019-02-09T08:20:21.323Z,18.17
2019-02-09T08:22:52.429Z,9.67
2019-02-09T08:25:23.083Z,11.33
2019-02-09T08:27:51.408Z,12.53
2019-02-09T08:30:25.575Z,23.30
2019-02-09T08:32:53.900Z,9.40
2019-02-09T08:35:22.167Z,12.77
2019-02-09T08:37:50.601Z,15.73
2019-02-09T08:40:18.939Z,14.37
2019-02-09T08:42:47.175Z,6.73
2019-02-09T08:45:19.868Z,12.80
2019-02-09T08:47:48.251Z,11.73
2019-02-09T08:50:25.229Z,17.50
2019-02-09T08:52:53.519Z,17.10
2019-02-09T08:55:21.781Z,19.70
2019-02-09T08:57:50.205Z,13.63
2019-02-09T09:00:26.772Z,24.80
2019-02-09T09:02:55.103Z,14.47
2019-02-09T09:05:23.339Z,16.70
2019-02-09T09:07:51.613Z,12.13
2019-02-09T09:10:22.334Z,15.73
2019-02-09T09:12:50.596Z,13.57
2019-02-09T09:15:22.021Z,20.53
2019-02-09T09:17:50.281Z,16.43
2019-02-09T09:20:27.184Z,34.93
2019-02-09T09:22:55.512Z,25.20
2019-02-09T09:25:23.789Z,19.30
2019-02-09T09:27:52.062Z,21.43
2019-02-09T09:30:23.144Z,22.07
2019-02-09T09:32:51.391Z,17.50
2019-02-09T09:35:19.673Z,15.57
2019-02-09T09:37:47.966Z,23.07
2019-02-09T09:40:19.479Z,20.90
2019-02-09T09:42:47.798Z,14.70
2019-02-09T09:45:21.043Z,17.43
2019-02-09T09:47:49.329Z,18.13
2019-02-09T09:50:20.228Z,14.60
2019-02-09T09:52:48.611Z,18.57
2019-02-09T09:55:16.916Z,17.17
2019-02-09T09:57:45.158Z,17.07
2019-02-09T10:00:16.177Z,12.73
2019-02-09T10:02:44.428Z,17.13
2019-02-09T10:05:15.892Z,8.13
2019-02-09T10:07:44.181Z,18.20
2019-02-09T10:10:18.515Z,25.97
2019-02-09T10:12:46.919Z,18.23
2019-02-09T10:15:23.236Z,15.63
2019-02-09T10:17:51.530Z,21.90
2019-02-09T10:20:25.029Z,26.07
2019-02-09T10:22:53.275Z,17.47
2019-02-09T10:25:21.531Z,12.00
2019-02-09T10:27:51.060Z,16.20
2019-02-09T10:30:30.221Z,18.27
2019-02-09T10:32:58.507Z,21.20
2019-02-09T10:35:26.807Z,23.60
2019-02-09T10:37:55.040Z,15.27
2019-02-09T10:40:28.699Z,19.43
2019-02-09T10:42:57.278Z,13.70
2019-02-09T10:45:27.571Z,10.90
2019-02-09T10:47:55.950Z,18.87
2019-02-09T10:50:27.437Z,11.80
2019-02-09T10:52:55.783Z,13.67
2019-02-09T10:55:24.298Z,19.50
2019-02-09T10:57:52.610Z,13.33
2019-02-09T11:00:33.258Z,18.63
2019-02-09T11:03:01.510Z,17.10
2019-02-09T11:05:29.797Z,19.90
2019-02-09T11:07:58.132Z,19.50
2019-02-09T11:10:26.405Z,27.83
2019-02-09T11:12:54.670Z,19.00
2019-02-09T11:15:23.382Z,11.00
2019-02-09T11:17:51.687Z,22.20
2019-02-09T11:20:22.190Z,13.17
2019-02-09T11:22:50.426Z,18.70
2019-02-09T11:25:19.926Z,16.47
2019-02-09T11:27:48.229Z,12.83
2019-02-09T11:30:21.305Z,18.77
2019-02-09T11:32:49.812Z,10.30
2019-02-09T11:35:18.103Z,22.40
2019-02-09T11:37:46.404Z,10.27
2019-02-09T11:40:16.913Z,20.80
2019-02-09T11:42:45.199Z,13.33
2019-02-09T11:45:33.321Z,17.40
2019-02-09T11:48:01.553Z,17.30
2019-02-09T11:50:29.826Z,5.87
2019-02-09T11:53:15.324Z,10.77
2019-02-09T11:55:43.721Z,7.30
2019-02-09T11:58:11.996Z,21.33
2019-02-09T12:00:43.400Z,16.27
2019-02-09T12:03:14.953Z,7.83
2019-02-09T12:05:41.788Z,12.90
2019-02-09T12:08:10.103Z,8.83
2019-02-09T12:10:38.376Z,6.27
2019-02-09T12:13:07.285Z,16.77
2019-02-09T12:15:37.480Z,11.73
2019-02-09T12:18:07.969Z,14.70
2019-02-09T12:20:36.388Z,20.27
2019-02-09T12:23:04.692Z,19.03
2019-02-09T12:25:35.230Z,7.47
2019-02-09T12:28:04.293Z,14.47
2019-02-09T12:30:34.727Z,12.40
2019-02-09T12:33:02.959Z,10.67
2019-02-09T12:35:31.239Z,13.20
2019-02-09T12:37:59.490Z,17.50
2019-02-09T12:40:29.630Z,26.33
2019-02-09T12:42:58.197Z,9.43
2019-02-09T12:45:28.820Z,10.33
2019-02-09T12:47:57.169Z,15.27
2019-02-09T12:50:26.775Z,12.40
2019-02-09T12:52:55.120Z,14.80
2019-02-09T12:55:23.434Z,7.50
2019-02-09T12:57:51.693Z,9.20
2019-02-09T13:00:22.778Z,17.50
2019-02-09T13:02:51.143Z,11.60
2019-02-09T13:05:19.406Z,11.60
2019-02-09T13:07:47.748Z,11.40
2019-02-09T13:10:19.857Z,9.90
2019-02-09T13:12:48.209Z,12.77
2019-02-09T13:15:22.282Z,14.10
2019-02-09T13:17:50.638Z,13.97
2019-02-09T13:20:23.668Z,18.27
2019-02-09T13:22:51.935Z,16.80
2019-02-09T13:25:20.248Z,4.73
2019-02-09T13:27:48.567Z,11.60
2019-02-09T13:30:28.298Z,11.50
2019-02-09T13:32:56.612Z,9.90
2019-02-09T13:35:24.891Z,10.67
2019-02-09T13:37:53.158Z,9.80
2019-02-09T13:40:23.190Z,13.13
2019-02-09T13:42:51.510Z,14.90
2019-02-09T13:45:27.796Z,15.43
2019-02-09T13:47:56.060Z,12.53
2019-02-09T13:50:24.309Z,11.90
2019-02-09T13:52:52.730Z,12.30
2019-02-09T13:55:21.028Z,17.67
2019-02-09T13:57:49.338Z,13.30
2019-02-09T14:00:25.544Z,10.43
2019-02-09T14:02:54.895Z,8.53
2019-02-09T14:05:23.223Z,23.40
2019-02-09T14:07:51.458Z,7.53
2019-02-09T14:10:21.474Z,11.57
2019-02-09T14:12:50.253Z,15.83
2019-02-09T14:15:35.837Z,19.03
2019-02-09T14:18:06.974Z,10.80
2019-02-09T14:20:35.349Z,17.00
2019-02-09T14:23:03.835Z,25.70
2019-02-09T14:25:32.209Z,20.93
2019-02-09T14:28:01.521Z,15.50
2019-02-09T14:30:46.000Z,13.60
2019-02-09T14:33:14.397Z,10.10
2019-02-09T14:35:45.531Z,14.77
2019-02-09T14:38:13.901Z,14.50
2019-02-09T14:40:45.299Z,12.27
2019-02-09T14:43:15.326Z,16.87
2019-02-09T14:45:45.409Z,13.93
2019-02-09T14:48:18.461Z,15.63
2019-02-09T14:50:48.618Z,17.17
2019-02-09T14:53:17.104Z,9.87
2019-02-09T14:55:49.525Z,17.10
2019-02-09T14:58:18.170Z,18.93
2019-02-09T15:00:49.400Z,9.93
2019-02-09T15:03:25.664Z,16.40
2019-02-09T15:05:49.090Z,17.93
2019-02-09T15:08:17.360Z,14.83
2019-02-09T15:10:45.785Z,11.03
2019-02-09T15:13:14.256Z,9.87
2019-02-09T15:15:48.596Z,14.57
2019-02-09T15:18:22.808Z,22.23
2019-02-09T15:21:05.526Z,19.90
2019-02-09T15:23:39.729Z,10.33
2019-02-09T15:26:12.773Z,17.77
2019-02-09T15:28:41.291Z,20.67
2019-02-09T15:31:09.616Z,19.60
2019-02-09T15:33:45.691Z,23.33
2019-02-09T15:36:15.182Z,15.10
2019-02-09T15:38:43.579Z,15.67
2019-02-09T15:41:13.593Z,13.97
2019-02-09T15:43:41.926Z,22.43
2019-02-09T15:46:10.858Z,21.90
2019-02-09T15:48:39.130Z,20.77
2019-02-09T15:51:07.465Z,17.83
2019-02-09T15:53:35.707Z,14.37
2019-02-09T15:56:04.053Z,23.03
2019-02-09T15:58:32.441Z,14.00
2019-02-09T16:01:00.914Z,15.57
2019-02-09T16:03:29.174Z,18.40
2019-02-09T16:05:57.426Z,8.77
2019-02-09T16:08:25.772Z,16.93
2019-02-09T16:10:53.998Z,17.37
2019-02-09T16:13:22.349Z,11.80
2019-02-09T16:15:50.611Z,28.47
2019-02-09T16:18:18.889Z,14.57
2019-02-09T16:20:47.191Z,15.10
2019-02-09T16:23:15.437Z,14.73
2019-02-09T16:25:43.743Z,16.83
2019-02-09T16:28:12.060Z,24.70
2019-02-09T16:30:40.307Z,14.77
2019-02-09T16:33:08.596Z,17.13
2019-02-09T16:35:36.908Z,13.40
2019-02-09T16:38:05.146Z,17.90
2019-02-09T16:40:34.616Z,12.33
2019-02-09T16:43:02.902Z,24.83
2019-02-09T16:45:36.499Z,17.97
2019-02-09T16:48:09.354Z,14.93
2019-02-09T16:50:37.754Z,13.33
2019-02-09T16:53:06.701Z,16.93
2019-02-09T16:55:34.931Z,9.37
2019-02-09T16:58:03.261Z,14.47
2019-02-09T17:00:40.338Z,20.13
2019-02-09T17:03:10.181Z,13.03
2019-02-09T17:05:38.502Z,12.83
2019-02-09T17:08:06.997Z,17.53
2019-02-09T17:10:35.840Z,14.37
2019-02-09T17:13:04.668Z,15.17
2019-02-09T17:15:32.982Z,15.47
2019-02-09T17:18:01.223Z,22.27
2019-02-09T17:20:29.543Z,20.40
2019-02-09T17:22:57.838Z,13.37
2019-02-09T17:25:26.681Z,10.40
2019-02-09T17:27:55.085Z,18.40
2019-02-09T17:30:25.735Z,17.57
2019-02-09T17:32:54.307Z,10.47
2019-02-09T17:35:22.651Z,23.33
2019-02-09T17:37:51.002Z,18.73
2019-02-09T17:40:22.165Z,10.63
2019-02-09T17:42:53.301Z,20.20
2019-02-09T17:45:23.689Z,14.53
2019-02-09T17:47:51.938Z,14.73
2019-02-09T17:50:20.232Z,13.07
2019-02-09T17:52:48.548Z,20.83
2019-02-09T17:55:20.952Z,31.73
2019-02-09T17:57:49.211Z,13.33
2019-02-09T18:00:28.933Z,22.57
2019-02-09T18:02:57.243Z,15.87
2019-02-09T18:05:25.489Z,10.67
2019-02-09T18:07:53.840Z,11.10
2019-02-09T18:10:22.097Z,15.80
2019-02-09T18:12:50.382Z,11.00
2019-02-09T18:15:22.928Z,17.20
2019-02-09T18:17:51.240Z,13.50
2019-02-09T18:20:19.507Z,10.90
2019-02-09T18:22:47.883Z,9.20
2019-02-09T18:25:20.515Z,15.97
2019-02-09T18:27:48.789Z,20.13
2019-02-09T18:30:22.224Z,14.80
2019-02-09T18:32:50.573Z,14.20
2019-02-09T18:35:18.816Z,21.13
2019-02-09T18:37:47.128Z,21.00
2019-02-09T18:40:24.275Z,14.73
2019-02-09T18:42:52.600Z,22.03
2019-02-09T18:45:31.333Z,11.17
2019-02-09T18:47:59.632Z,18.43
2019-02-09T18:50:29.227Z,21.47
2019-02-09T18:52:58.360Z,18.20
2019-02-09T18:55:28.018Z,18.83
2019-02-09T18:57:56.328Z,23.40
2019-02-09T19:00:33.574Z,12.97
2019-02-09T19:03:01.822Z,11.27
2019-02-09T19:05:30.106Z,12.50
2019-02-09T19:07:58.361Z,9.93
2019-02-09T19:10:30.500Z,22.73
2019-02-09T19:12:58.751Z,14.30
2019-02-09T19:15:27.696Z,10.97
2019-02-09T19:17:57.137Z,21.00
2019-02-09T19:20:27.845Z,19.80
2019-02-09T19:22:56.100Z,18.60
2019-02-09T19:25:24.451Z,17.27
2019-02-09T19:27:52.795Z,20.80
2019-02-09T19:30:23.113Z,23.33
2019-02-09T19:32:51.737Z,18.77
2019-02-09T19:35:20.061Z,24.43
2019-02-09T19:37:48.342Z,14.57
2019-02-09T19:40:21.689Z,20.00
2019-02-09T19:42:50.254Z,15.03
2019-02-09T19:45:23.841Z,10.10
2019-02-09T19:47:52.169Z,18.67
2019-02-09T19:50:20.458Z,17.20
2019-02-09T19:52:48.846Z,18.93
2019-02-09T19:55:24.113Z,18.07
2019-02-09T19:57:52.372Z,14.00
2019-02-09T20:00:31.740Z,15.97
2019-02-09T20:02:59.987Z,16.43
2019-02-09T20:05:28.245Z,16.50
2019-02-09T20:07:56.533Z,20.50
2019-02-09T20:10:39.398Z,20.73
2019-02-09T20:13:09.091Z,15.83
2019-02-09T20:15:37.368Z,22.50
2019-02-09T20:18:06.711Z,17.30
2019-02-09T20:20:35.015Z,23.33
2019-02-09T20:23:03.377Z,19.70
2019-02-09T20:25:32.600Z,17.40
2019-02-09T20:28:00.872Z,20.10
2019-02-09T20:30:31.938Z,13.60
2019-02-09T20:33:00.327Z,30.43
2019-02-09T20:35:28.654Z,13.67
2019-02-09T20:37:56.893Z,15.90
2019-02-09T20:40:38.622Z,24.43
2019-02-09T20:43:09.211Z,31.73
2019-02-09T20:45:37.468Z,15.40
2019-02-09T20:48:05.918Z,26.47
2019-02-09T20:50:34.344Z,22.67
2019-02-09T20:53:03.504Z,17.47
2019-02-09T20:55:31.753Z,22.07
2019-02-09T20:58:00.037Z,23.17
2019-02-09T21:00:30.516Z,31.17
2019-02-09T21:02:58.971Z,15.23
2019-02-09T21:05:27.213Z,33.17
2019-02-09T21:07:55.584Z,30.60
2019-02-09T21:10:28.848Z,24.03
2019-02-09T21:12:57.160Z,17.87
2019-02-09T21:15:27.151Z,16.60
2019-02-09T21:17:55.397Z,14.40
2019-02-09T21:20:23.657Z,19.30
2019-02-09T21:22:52.104Z,31.90
2019-02-09T21:25:25.982Z,35.70
2019-02-09T21:27:54.229Z,24.53
2019-02-09T21:30:23.903Z,30.23
2019-02-09T21:32:52.329Z,23.50
2019-02-09T21:35:21.520Z,16.03
2019-02-09T21:37:49.814Z,13.83
2019-02-09T21:40:23.319Z,17.90
2019-02-09T21:42:51.598Z,21.00
2019-02-09T21:45:22.378Z,20.20
2019-02-09T21:47:50.698Z,11.93
2019-02-09T21:50:24.792Z,29.63
2019-02-09T21:52:54.348Z,29.33
2019-02-09T21:55:22.945Z,22.47
2019-02-09T21:57:51.211Z,22.33
2019-02-09T22:00:24.861Z,20.03
2019-02-09T22:02:53.134Z,15.60
2019-02-09T22:05:21.385Z,14.33
2019-02-09T22:07:49.665Z,17.87
2019-02-09T22:10:20.526Z,13.00
2019-02-09T22:12:48.924Z,18.93
2019-02-09T22:15:18.949Z,28.43
2019-02-09T22:17:47.228Z,23.17
2019-02-09T22:20:19.704Z,23.00
2019-02-09T22:22:48.225Z,20.57
2019-02-09T22:25:20.890Z,17.93
2019-02-09T22:27:49.966Z,25.40
2019-02-09T22:30:32.525Z,31.93
2019-02-09T22:33:01.138Z,27.10
2019-02-09T22:35:29.635Z,11.20
2019-02-09T22:37:58.071Z,21.93
2019-02-09T22:40:37.121Z,17.43
2019-02-09T22:43:06.141Z,21.90
2019-02-09T22:45:34.387Z,17.33
2019-02-09T22:48:02.785Z,17.10
2019-02-09T22:50:33.840Z,18.83
2019-02-09T22:53:04.855Z,13.93
2019-02-09T22:55:33.106Z,12.93
2019-02-09T22:58:01.382Z,19.03
2019-02-09T23:00:53.946Z,21.03
2019-02-09T23:03:37.509Z,34.20
2019-02-09T23:06:15.036Z,13.97
2019-02-09T23:08:48.080Z,21.87
2019-02-09T23:11:16.340Z,19.17
2019-02-09T23:13:45.264Z,25.07
2019-02-09T23:16:13.550Z,21.70
2019-02-09T23:18:41.851Z,18.13
2019-02-09T23:21:10.104Z,21.23
2019-02-09T23:23:38.374Z,36.97
2019-02-09T23:26:06.664Z,10.67
2019-02-09T23:28:34.919Z,23.43
2019-02-09T23:31:03.209Z,30.67
2019-02-09T23:33:31.484Z,11.87
2019-02-09T23:35:59.761Z,19.37
2019-02-09T23:38:28.137Z,25.63
2019-02-09T23:40:56.395Z,12.63
2019-02-09T23:43:24.678Z,16.57
2019-02-09T23:45:52.950Z,27.57
2019-02-09T23:48:21.528Z,14.50
2019-02-09T23:50:49.817Z,8.23
2019-02-09T23:53:18.161Z,21.73
2019-02-09T23:55:46.414Z,22.23
2019-02-09T23:58:14.675Z,30.10
